Portada
METAR-TAF:

METAR-TAF

Aeropuertos :

Aeropuerto de Huesca-Pirineos

Huesca, España

latitud: 42-04-32N, longitud: 0-18-58W, altitud: 539 m

Observación

El informe se hizo hace 25 minutos, a las 13:30 UTC
Viento 5 kt del oeste, variando entre suroeste y norte-noroeste
Temperatura 11°C
Humedad 47%
Presión 1031 hPa
Visibilidad 10 km o más
sin nubes por debajo de 1500 m y sin presencia de cumulonimbus.

METAR: LEHC 031330Z 28005KT 230V330 CAVOK 11/00 Q1031

Hora: 14:55 (13:55 UTC)

Pronóstico

El informe se hizo hace 5 horas y 55 minutos, a las 08:00 UTC
Pronóstico válido del 03 a las 09 UTC al 04 a las 09 UTC
Viento 4 kt con dirección variable
Visibilidad 10 km o más
sin nubes por debajo de 1500 m y sin presencia de cumulonimbus.
Temporalmente
del 03 a las 12 UTC al 03 a las 18 UTC
Viento 8 kt del oeste

TAF: LEHC 030800Z 0309/0409 VRB04KT CAVOK TX13/0313Z TNM02/0407Z TEMPO 0312/0318 27008KT

Observaciones y pronósticos meteorológicos de más de 4000 aeropuertos (mensajes METAR y TAF).

Los puntos amarillos y rojos representan las estaciones disponibles.

Ponga el ratón en el punto deseado para ver el nombre de la estación.

Haga clic para ver las observaciones y los pronósticos meteorológicos.

Para cambiar el mapa : haga clic en los botones verdes con una cruz de color negro para hacer un zoom, en el botón verde con un guión para alejar o en las flechas verdes para mapas adyacentes.


METAR-TAF: